sensor_id;sensor_type;location;lat;lon;timestamp;P1;durP1;ratioP1;P2;durP2;ratioP2
52322;SDS011;38263;52.920;6.238;2022-12-29T00:02:14;7.05;;;5.28;;
52322;SDS011;38263;52.920;6.238;2022-12-29T00:04:40;6.15;;;5.55;;
52322;SDS011;38263;52.920;6.238;2022-12-29T00:07:06;6.68;;;5.60;;
52322;SDS011;38263;52.920;6.238;2022-12-29T00:09:32;8.90;;;6.32;;
52322;SDS011;38263;52.920;6.238;2022-12-29T00:11:59;7.40;;;6.22;;
52322;SDS011;38263;52.920;6.238;2022-12-29T00:14:26;7.15;;;5.95;;
52322;SDS011;38263;52.920;6.238;2022-12-29T00:17:10;7.20;;;5.38;;
52322;SDS011;38263;52.920;6.238;2022-12-29T00:19:36;6.50;;;5.70;;
52322;SDS011;38263;52.920;6.238;2022-12-29T00:22:21;6.53;;;5.57;;
52322;SDS011;38263;52.920;6.238;2022-12-29T00:25:08;6.75;;;5.40;;
52322;SDS011;38263;52.920;6.238;2022-12-29T00:27:34;6.35;;;5.70;;
52322;SDS011;38263;52.920;6.238;2022-12-29T00:30:20;6.00;;;5.40;;
52322;SDS011;38263;52.920;6.238;2022-12-29T00:33:11;6.65;;;5.20;;
52322;SDS011;38263;52.920;6.238;2022-12-29T00:41:16;6.45;;;4.78;;
52322;SDS011;38263;52.920;6.238;2022-12-29T00:44:01;7.70;;;4.15;;
52322;SDS011;38263;52.920;6.238;2022-12-29T00:46:30;5.32;;;4.70;;
52322;SDS011;38263;52.920;6.238;2022-12-29T00:49:00;7.63;;;4.50;;
52322;SDS011;38263;52.920;6.238;2022-12-29T00:51:44;5.97;;;4.17;;
52322;SDS011;38263;52.920;6.238;2022-12-29T00:54:11;5.57;;;4.13;;
52322;SDS011;38263;52.920;6.238;2022-12-29T00:56:37;5.05;;;4.38;;
52322;SDS011;38263;52.920;6.238;2022-12-29T00:59:06;4.07;;;3.67;;
52322;SDS011;38263;52.920;6.238;2022-12-29T01:01:34;7.05;;;3.83;;
52322;SDS011;38263;52.920;6.238;2022-12-29T01:04:00;4.10;;;3.55;;
52322;SDS011;38263;52.920;6.238;2022-12-29T01:06:26;4.53;;;3.72;;
52322;SDS011;38263;52.920;6.238;2022-12-29T01:08:52;6.10;;;3.95;;
52322;SDS011;38263;52.920;6.238;2022-12-29T01:11:37;6.40;;;4.25;;
52322;SDS011;38263;52.920;6.238;2022-12-29T01:14:03;4.30;;;3.90;;
52322;SDS011;38263;52.920;6.238;2022-12-29T01:16:29;4.85;;;3.95;;
52322;SDS011;38263;52.920;6.238;2022-12-29T01:18:55;5.47;;;4.47;;
52322;SDS011;38263;52.920;6.238;2022-12-29T01:21:21;4.97;;;3.53;;
52322;SDS011;38263;52.920;6.238;2022-12-29T01:23:47;4.30;;;3.50;;
52322;SDS011;38263;52.920;6.238;2022-12-29T01:26:14;5.50;;;3.55;;
52322;SDS011;38263;52.920;6.238;2022-12-29T01:28:40;4.45;;;3.70;;
52322;SDS011;38263;52.920;6.238;2022-12-29T01:31:07;5.15;;;3.67;;
52322;SDS011;38263;52.920;6.238;2022-12-29T01:33:33;5.38;;;3.70;;
52322;SDS011;38263;52.920;6.238;2022-12-29T01:36:00;6.38;;;3.85;;
52322;SDS011;38263;52.920;6.238;2022-12-29T01:38:26;6.88;;;3.70;;
52322;SDS011;38263;52.920;6.238;2022-12-29T01:40:52;5.80;;;3.40;;
52322;SDS011;38263;52.920;6.238;2022-12-29T01:43:18;3.40;;;3.03;;
52322;SDS011;38263;52.920;6.238;2022-12-29T01:45:45;3.42;;;2.53;;
52322;SDS011;38263;52.920;6.238;2022-12-29T01:48:14;4.88;;;3.45;;
52322;SDS011;38263;52.920;6.238;2022-12-29T01:50:46;4.72;;;3.20;;
52322;SDS011;38263;52.920;6.238;2022-12-29T01:53:21;3.45;;;2.50;;
52322;SDS011;38263;52.920;6.238;2022-12-29T01:55:53;4.57;;;2.95;;
52322;SDS011;38263;52.920;6.238;2022-12-29T01:58:20;4.93;;;3.55;;
52322;SDS011;38263;52.920;6.238;2022-12-29T02:00:49;4.32;;;3.13;;
52322;SDS011;38263;52.920;6.238;2022-12-29T02:03:15;4.22;;;3.08;;
52322;SDS011;38263;52.920;6.238;2022-12-29T02:05:44;3.22;;;2.60;;
52322;SDS011;38263;52.920;6.238;2022-12-29T02:08:11;4.28;;;2.60;;
52322;SDS011;38263;52.920;6.238;2022-12-29T02:10:38;3.20;;;2.70;;
52322;SDS011;38263;52.920;6.238;2022-12-29T02:13:05;3.08;;;2.72;;
52322;SDS011;38263;52.920;6.238;2022-12-29T02:15:34;7.43;;;2.50;;
52322;SDS011;38263;52.920;6.238;2022-12-29T02:26:22;3.30;;;2.53;;
52322;SDS011;38263;52.920;6.238;2022-12-29T02:28:56;5.88;;;2.70;;
52322;SDS011;38263;52.920;6.238;2022-12-29T02:31:57;6.07;;;2.50;;
52322;SDS011;38263;52.920;6.238;2022-12-29T02:34:35;7.85;;;2.53;;
52322;SDS011;38263;52.920;6.238;2022-12-29T02:37:22;3.22;;;1.90;;
52322;SDS011;38263;52.920;6.238;2022-12-29T02:48:07;2.97;;;2.15;;
52322;SDS011;38263;52.920;6.238;2022-12-29T02:53:21;4.22;;;2.58;;
52322;SDS011;38263;52.920;6.238;2022-12-29T02:56:08;2.90;;;1.92;;
52322;SDS011;38263;52.920;6.238;2022-12-29T02:58:34;2.97;;;2.03;;
52322;SDS011;38263;52.920;6.238;2022-12-29T03:01:04;4.00;;;1.95;;
52322;SDS011;38263;52.920;6.238;2022-12-29T03:03:38;2.03;;;1.55;;
52322;SDS011;38263;52.920;6.238;2022-12-29T03:08:56;3.05;;;1.40;;
52322;SDS011;38263;52.920;6.238;2022-12-29T03:11:47;3.03;;;1.45;;
52322;SDS011;38263;52.920;6.238;2022-12-29T03:14:47;4.20;;;1.65;;
52322;SDS011;38263;52.920;6.238;2022-12-29T03:17:37;3.05;;;1.60;;
52322;SDS011;38263;52.920;6.238;2022-12-29T03:20:24;3.55;;;1.70;;
52322;SDS011;38263;52.920;6.238;2022-12-29T03:22:53;4.00;;;1.83;;
52322;SDS011;38263;52.920;6.238;2022-12-29T03:25:27;3.00;;;1.77;;
52322;SDS011;38263;52.920;6.238;2022-12-29T03:27:57;3.58;;;1.75;;
52322;SDS011;38263;52.920;6.238;2022-12-29T03:30:26;2.22;;;1.80;;
52322;SDS011;38263;52.920;6.238;2022-12-29T03:32:55;4.57;;;1.85;;
52322;SDS011;38263;52.920;6.238;2022-12-29T03:35:24;3.25;;;2.08;;
52322;SDS011;38263;52.920;6.238;2022-12-29T03:38:04;2.63;;;2.15;;
52322;SDS011;38263;52.920;6.238;2022-12-29T03:40:36;3.58;;;1.63;;
52322;SDS011;38263;52.920;6.238;2022-12-29T03:43:04;2.35;;;1.55;;
52322;SDS011;38263;52.920;6.238;2022-12-29T03:45:30;4.90;;;1.65;;
52322;SDS011;38263;52.920;6.238;2022-12-29T03:47:56;5.90;;;1.67;;
52322;SDS011;38263;52.920;6.238;2022-12-29T03:50:22;6.22;;;2.10;;
52322;SDS011;38263;52.920;6.238;2022-12-29T03:52:48;5.35;;;2.25;;
52322;SDS011;38263;52.920;6.238;2022-12-29T03:55:14;6.07;;;2.13;;
52322;SDS011;38263;52.920;6.238;2022-12-29T03:57:40;2.90;;;1.88;;
52322;SDS011;38263;52.920;6.238;2022-12-29T04:00:06;2.60;;;1.55;;
52322;SDS011;38263;52.920;6.238;2022-12-29T04:02:32;4.03;;;1.60;;
52322;SDS011;38263;52.920;6.238;2022-12-29T04:04:58;3.95;;;1.33;;
52322;SDS011;38263;52.920;6.238;2022-12-29T04:07:24;5.90;;;1.85;;
52322;SDS011;38263;52.920;6.238;2022-12-29T04:09:50;3.58;;;1.48;;
52322;SDS011;38263;52.920;6.238;2022-12-29T04:12:16;3.17;;;1.65;;
52322;SDS011;38263;52.920;6.238;2022-12-29T04:14:42;3.70;;;1.40;;
52322;SDS011;38263;52.920;6.238;2022-12-29T04:17:08;7.88;;;1.42;;
52322;SDS011;38263;52.920;6.238;2022-12-29T04:19:34;4.10;;;1.13;;
52322;SDS011;38263;52.920;6.238;2022-12-29T04:22:00;4.90;;;1.40;;
52322;SDS011;38263;52.920;6.238;2022-12-29T04:24:26;2.35;;;1.02;;
52322;SDS011;38263;52.920;6.238;2022-12-29T04:26:51;3.67;;;0.98;;
52322;SDS011;38263;52.920;6.238;2022-12-29T04:29:17;2.58;;;1.10;;
52322;SDS011;38263;52.920;6.238;2022-12-29T04:31:44;2.55;;;0.90;;
52322;SDS011;38263;52.920;6.238;2022-12-29T04:34:10;3.65;;;1.20;;
52322;SDS011;38263;52.920;6.238;2022-12-29T04:36:35;3.65;;;1.10;;
52322;SDS011;38263;52.920;6.238;2022-12-29T04:39:02;6.25;;;1.58;;
52322;SDS011;38263;52.920;6.238;2022-12-29T04:41:30;3.03;;;1.13;;
52322;SDS011;38263;52.920;6.238;2022-12-29T04:43:56;3.92;;;1.42;;
52322;SDS011;38263;52.920;6.238;2022-12-29T04:46:22;4.55;;;1.50;;
52322;SDS011;38263;52.920;6.238;2022-12-29T04:48:48;6.30;;;1.17;;
52322;SDS011;38263;52.920;6.238;2022-12-29T04:51:14;7.18;;;2.00;;
52322;SDS011;38263;52.920;6.238;2022-12-29T04:53:40;3.60;;;1.45;;
52322;SDS011;38263;52.920;6.238;2022-12-29T04:56:06;3.83;;;1.63;;
52322;SDS011;38263;52.920;6.238;2022-12-29T04:58:32;7.05;;;2.17;;
52322;SDS011;38263;52.920;6.238;2022-12-29T05:00:58;6.65;;;1.70;;
52322;SDS011;38263;52.920;6.238;2022-12-29T05:03:24;4.93;;;1.83;;
52322;SDS011;38263;52.920;6.238;2022-12-29T05:05:52;10.77;;;2.08;;
52322;SDS011;38263;52.920;6.238;2022-12-29T05:08:19;4.85;;;1.83;;
52322;SDS011;38263;52.920;6.238;2022-12-29T05:10:45;6.05;;;1.77;;
52322;SDS011;38263;52.920;6.238;2022-12-29T05:13:11;5.03;;;3.00;;
52322;SDS011;38263;52.920;6.238;2022-12-29T05:15:37;10.65;;;2.20;;
52322;SDS011;38263;52.920;6.238;2022-12-29T05:18:03;9.18;;;1.77;;
52322;SDS011;38263;52.920;6.238;2022-12-29T05:20:29;12.73;;;1.90;;
52322;SDS011;38263;52.920;6.238;2022-12-29T05:22:55;12.65;;;2.65;;
52322;SDS011;38263;52.920;6.238;2022-12-29T05:25:21;9.05;;;2.22;;
52322;SDS011;38263;52.920;6.238;2022-12-29T05:27:47;8.15;;;1.95;;
52322;SDS011;38263;52.920;6.238;2022-12-29T05:30:13;14.00;;;2.15;;
52322;SDS011;38263;52.920;6.238;2022-12-29T05:32:39;6.00;;;1.60;;
52322;SDS011;38263;52.920;6.238;2022-12-29T05:35:05;12.88;;;2.05;;
52322;SDS011;38263;52.920;6.238;2022-12-29T05:37:31;6.40;;;1.70;;
52322;SDS011;38263;52.920;6.238;2022-12-29T05:39:57;5.50;;;2.08;;
52322;SDS011;38263;52.920;6.238;2022-12-29T05:42:24;13.88;;;2.10;;
52322;SDS011;38263;52.920;6.238;2022-12-29T05:44:50;5.32;;;1.85;;
52322;SDS011;38263;52.920;6.238;2022-12-29T05:47:18;9.40;;;2.25;;
52322;SDS011;38263;52.920;6.238;2022-12-29T05:49:44;8.40;;;2.40;;
52322;SDS011;38263;52.920;6.238;2022-12-29T05:52:10;8.32;;;1.70;;
52322;SDS011;38263;52.920;6.238;2022-12-29T05:54:36;4.88;;;1.55;;
52322;SDS011;38263;52.920;6.238;2022-12-29T05:57:02;7.97;;;1.73;;
52322;SDS011;38263;52.920;6.238;2022-12-29T05:59:28;9.05;;;2.08;;
52322;SDS011;38263;52.920;6.238;2022-12-29T06:01:54;7.25;;;2.58;;
52322;SDS011;38263;52.920;6.238;2022-12-29T06:04:19;6.18;;;2.78;;
52322;SDS011;38263;52.920;6.238;2022-12-29T06:06:45;6.82;;;1.90;;
52322;SDS011;38263;52.920;6.238;2022-12-29T06:09:11;4.93;;;1.60;;
52322;SDS011;38263;52.920;6.238;2022-12-29T06:11:37;9.32;;;2.20;;
52322;SDS011;38263;52.920;6.238;2022-12-29T06:14:03;7.05;;;1.83;;
52322;SDS011;38263;52.920;6.238;2022-12-29T06:16:28;8.30;;;2.05;;
52322;SDS011;38263;52.920;6.238;2022-12-29T06:18:54;9.68;;;1.88;;
52322;SDS011;38263;52.920;6.238;2022-12-29T06:21:20;12.70;;;4.13;;
52322;SDS011;38263;52.920;6.238;2022-12-29T06:23:46;8.88;;;2.10;;
52322;SDS011;38263;52.920;6.238;2022-12-29T06:26:12;12.85;;;1.92;;
52322;SDS011;38263;52.920;6.238;2022-12-29T06:28:38;9.23;;;1.92;;
52322;SDS011;38263;52.920;6.238;2022-12-29T06:31:04;10.85;;;2.50;;
52322;SDS011;38263;52.920;6.238;2022-12-29T06:33:30;10.18;;;2.05;;
52322;SDS011;38263;52.920;6.238;2022-12-29T06:35:55;15.05;;;2.28;;
52322;SDS011;38263;52.920;6.238;2022-12-29T06:38:21;16.00;;;2.53;;
52322;SDS011;38263;52.920;6.238;2022-12-29T06:40:47;12.45;;;2.90;;
52322;SDS011;38263;52.920;6.238;2022-12-29T06:43:13;12.73;;;2.65;;
52322;SDS011;38263;52.920;6.238;2022-12-29T06:45:39;13.18;;;1.85;;
52322;SDS011;38263;52.920;6.238;2022-12-29T06:48:06;14.95;;;3.08;;
52322;SDS011;38263;52.920;6.238;2022-12-29T06:50:32;11.77;;;2.83;;
52322;SDS011;38263;52.920;6.238;2022-12-29T06:52:58;12.70;;;2.72;;
52322;SDS011;38263;52.920;6.238;2022-12-29T06:55:24;8.95;;;2.53;;
52322;SDS011;38263;52.920;6.238;2022-12-29T06:57:50;14.02;;;2.42;;
52322;SDS011;38263;52.920;6.238;2022-12-29T07:00:18;7.95;;;2.20;;
52322;SDS011;38263;52.920;6.238;2022-12-29T07:02:45;8.80;;;3.08;;
52322;SDS011;38263;52.920;6.238;2022-12-29T07:05:11;11.57;;;2.40;;
52322;SDS011;38263;52.920;6.238;2022-12-29T07:07:38;9.13;;;2.50;;
52322;SDS011;38263;52.920;6.238;2022-12-29T07:10:04;10.30;;;2.80;;
52322;SDS011;38263;52.920;6.238;2022-12-29T07:12:30;14.05;;;2.33;;
52322;SDS011;38263;52.920;6.238;2022-12-29T07:14:56;11.65;;;2.30;;
52322;SDS011;38263;52.920;6.238;2022-12-29T07:17:22;12.88;;;2.33;;
52322;SDS011;38263;52.920;6.238;2022-12-29T07:19:48;9.43;;;2.30;;
52322;SDS011;38263;52.920;6.238;2022-12-29T07:22:14;9.90;;;2.30;;
52322;SDS011;38263;52.920;6.238;2022-12-29T07:24:40;11.90;;;2.00;;
52322;SDS011;38263;52.920;6.238;2022-12-29T07:27:08;16.90;;;2.78;;
52322;SDS011;38263;52.920;6.238;2022-12-29T07:29:33;8.85;;;2.35;;
52322;SDS011;38263;52.920;6.238;2022-12-29T07:31:59;15.70;;;2.90;;
52322;SDS011;38263;52.920;6.238;2022-12-29T07:34:25;10.77;;;2.42;;
52322;SDS011;38263;52.920;6.238;2022-12-29T07:36:51;6.57;;;2.50;;
52322;SDS011;38263;52.920;6.238;2022-12-29T07:39:17;13.50;;;2.47;;
52322;SDS011;38263;52.920;6.238;2022-12-29T07:41:43;10.73;;;2.38;;
52322;SDS011;38263;52.920;6.238;2022-12-29T07:44:09;6.82;;;1.73;;
52322;SDS011;38263;52.920;6.238;2022-12-29T07:46:34;15.23;;;3.05;;
52322;SDS011;38263;52.920;6.238;2022-12-29T07:49:00;10.45;;;2.35;;
52322;SDS011;38263;52.920;6.238;2022-12-29T07:51:26;12.43;;;3.25;;
52322;SDS011;38263;52.920;6.238;2022-12-29T07:53:52;12.15;;;2.08;;
52322;SDS011;38263;52.920;6.238;2022-12-29T07:56:18;10.48;;;2.20;;
52322;SDS011;38263;52.920;6.238;2022-12-29T07:58:44;13.25;;;3.00;;
52322;SDS011;38263;52.920;6.238;2022-12-29T08:01:10;11.25;;;2.50;;
52322;SDS011;38263;52.920;6.238;2022-12-29T08:03:36;13.18;;;2.63;;
52322;SDS011;38263;52.920;6.238;2022-12-29T08:06:02;10.43;;;2.55;;
52322;SDS011;38263;52.920;6.238;2022-12-29T08:08:28;15.07;;;2.90;;
52322;SDS011;38263;52.920;6.238;2022-12-29T08:10:54;10.57;;;2.47;;
52322;SDS011;38263;52.920;6.238;2022-12-29T08:13:20;14.55;;;2.72;;
52322;SDS011;38263;52.920;6.238;2022-12-29T08:15:46;19.35;;;3.50;;
52322;SDS011;38263;52.920;6.238;2022-12-29T08:18:12;10.85;;;2.78;;
52322;SDS011;38263;52.920;6.238;2022-12-29T08:20:38;15.77;;;3.25;;
52322;SDS011;38263;52.920;6.238;2022-12-29T08:23:03;12.23;;;2.92;;
52322;SDS011;38263;52.920;6.238;2022-12-29T08:25:29;20.50;;;3.25;;
52322;SDS011;38263;52.920;6.238;2022-12-29T08:27:55;17.52;;;3.03;;
52322;SDS011;38263;52.920;6.238;2022-12-29T08:30:21;12.45;;;3.00;;
52322;SDS011;38263;52.920;6.238;2022-12-29T08:32:48;15.35;;;3.95;;
52322;SDS011;38263;52.920;6.238;2022-12-29T08:35:14;16.25;;;3.47;;
52322;SDS011;38263;52.920;6.238;2022-12-29T08:37:40;18.70;;;2.53;;
52322;SDS011;38263;52.920;6.238;2022-12-29T08:40:06;11.38;;;2.78;;
52322;SDS011;38263;52.920;6.238;2022-12-29T08:42:32;14.65;;;3.22;;
52322;SDS011;38263;52.920;6.238;2022-12-29T08:44:58;14.90;;;3.17;;
52322;SDS011;38263;52.920;6.238;2022-12-29T08:47:25;14.85;;;3.13;;
52322;SDS011;38263;52.920;6.238;2022-12-29T08:49:51;18.85;;;3.72;;
52322;SDS011;38263;52.920;6.238;2022-12-29T08:52:17;13.10;;;2.92;;
52322;SDS011;38263;52.920;6.238;2022-12-29T08:54:43;12.23;;;2.67;;
52322;SDS011;38263;52.920;6.238;2022-12-29T08:57:09;18.10;;;3.72;;
52322;SDS011;38263;52.920;6.238;2022-12-29T08:59:35;18.50;;;2.70;;
52322;SDS011;38263;52.920;6.238;2022-12-29T09:02:00;14.98;;;3.50;;
52322;SDS011;38263;52.920;6.238;2022-12-29T09:04:26;18.13;;;3.90;;
52322;SDS011;38263;52.920;6.238;2022-12-29T09:06:53;11.40;;;2.58;;
52322;SDS011;38263;52.920;6.238;2022-12-29T09:09:19;14.93;;;2.95;;
52322;SDS011;38263;52.920;6.238;2022-12-29T09:11:45;11.27;;;2.95;;
52322;SDS011;38263;52.920;6.238;2022-12-29T09:14:11;10.30;;;2.60;;
52322;SDS011;38263;52.920;6.238;2022-12-29T09:16:37;10.65;;;2.67;;
52322;SDS011;38263;52.920;6.238;2022-12-29T09:19:04;14.00;;;3.30;;
52322;SDS011;38263;52.920;6.238;2022-12-29T09:21:29;14.85;;;2.88;;
52322;SDS011;38263;52.920;6.238;2022-12-29T09:23:55;14.63;;;3.22;;
52322;SDS011;38263;52.920;6.238;2022-12-29T09:26:21;12.23;;;2.85;;
52322;SDS011;38263;52.920;6.238;2022-12-29T09:28:47;12.43;;;3.95;;
52322;SDS011;38263;52.920;6.238;2022-12-29T09:31:13;18.23;;;3.20;;
52322;SDS011;38263;52.920;6.238;2022-12-29T09:33:39;16.13;;;2.97;;
52322;SDS011;38263;52.920;6.238;2022-12-29T09:36:06;14.63;;;2.50;;
52322;SDS011;38263;52.920;6.238;2022-12-29T09:38:31;16.60;;;2.97;;
52322;SDS011;38263;52.920;6.238;2022-12-29T09:41:01;10.90;;;2.88;;
52322;SDS011;38263;52.920;6.238;2022-12-29T09:43:43;17.17;;;2.88;;
52322;SDS011;38263;52.920;6.238;2022-12-29T09:46:17;12.15;;;3.13;;
52322;SDS011;38263;52.920;6.238;2022-12-29T09:48:45;15.55;;;2.50;;
52322;SDS011;38263;52.920;6.238;2022-12-29T09:51:15;15.55;;;3.20;;
52322;SDS011;38263;52.920;6.238;2022-12-29T09:53:45;18.45;;;3.47;;
52322;SDS011;38263;52.920;6.238;2022-12-29T09:56:23;13.55;;;3.13;;
52322;SDS011;38263;52.920;6.238;2022-12-29T09:58:58;18.42;;;5.82;;
52322;SDS011;38263;52.920;6.238;2022-12-29T10:01:36;18.60;;;3.40;;
52322;SDS011;38263;52.920;6.238;2022-12-29T10:04:03;14.68;;;3.03;;
52322;SDS011;38263;52.920;6.238;2022-12-29T10:06:37;14.10;;;2.83;;
52322;SDS011;38263;52.920;6.238;2022-12-29T10:09:12;14.32;;;2.80;;
52322;SDS011;38263;52.920;6.238;2022-12-29T10:11:55;13.13;;;2.58;;
52322;SDS011;38263;52.920;6.238;2022-12-29T10:14:33;10.80;;;2.95;;
52322;SDS011;38263;52.920;6.238;2022-12-29T10:19:52;14.00;;;2.40;;
52322;SDS011;38263;52.920;6.238;2022-12-29T10:22:37;16.48;;;2.70;;
52322;SDS011;38263;52.920;6.238;2022-12-29T10:25:12;13.60;;;2.90;;
52322;SDS011;38263;52.920;6.238;2022-12-29T10:27:39;10.93;;;2.28;;
52322;SDS011;38263;52.920;6.238;2022-12-29T10:30:11;12.43;;;2.78;;
52322;SDS011;38263;52.920;6.238;2022-12-29T10:32:40;14.38;;;3.47;;
52322;SDS011;38263;52.920;6.238;2022-12-29T10:35:14;17.20;;;2.88;;
52322;SDS011;38263;52.920;6.238;2022-12-29T10:38:01;13.77;;;3.58;;
52322;SDS011;38263;52.920;6.238;2022-12-29T10:43:24;12.10;;;2.10;;
52322;SDS011;38263;52.920;6.238;2022-12-29T10:45:52;14.35;;;3.13;;
52322;SDS011;38263;52.920;6.238;2022-12-29T10:48:20;13.95;;;2.53;;
52322;SDS011;38263;52.920;6.238;2022-12-29T10:50:47;11.25;;;2.60;;
52322;SDS011;38263;52.920;6.238;2022-12-29T10:53:17;14.95;;;2.65;;
52322;SDS011;38263;52.920;6.238;2022-12-29T10:55:44;10.55;;;2.75;;
52322;SDS011;38263;52.920;6.238;2022-12-29T10:58:12;14.07;;;3.05;;
52322;SDS011;38263;52.920;6.238;2022-12-29T11:00:39;11.65;;;2.28;;
52322;SDS011;38263;52.920;6.238;2022-12-29T11:03:15;7.18;;;2.20;;
52322;SDS011;38263;52.920;6.238;2022-12-29T11:08:25;16.50;;;2.97;;
52322;SDS011;38263;52.920;6.238;2022-12-29T11:10:59;12.05;;;2.08;;
52322;SDS011;38263;52.920;6.238;2022-12-29T11:13:27;11.25;;;2.45;;
52322;SDS011;38263;52.920;6.238;2022-12-29T11:15:54;19.60;;;3.25;;
52322;SDS011;38263;52.920;6.238;2022-12-29T11:18:27;13.93;;;2.95;;
52322;SDS011;38263;52.920;6.238;2022-12-29T11:20:58;10.60;;;3.28;;
52322;SDS011;38263;52.920;6.238;2022-12-29T11:26:07;23.20;;;3.83;;
52322;SDS011;38263;52.920;6.238;2022-12-29T11:28:34;16.48;;;3.90;;
52322;SDS011;38263;52.920;6.238;2022-12-29T11:31:00;16.27;;;3.70;;
52322;SDS011;38263;52.920;6.238;2022-12-29T11:33:28;21.33;;;4.95;;
52322;SDS011;38263;52.920;6.238;2022-12-29T11:35:58;17.17;;;3.17;;
52322;SDS011;38263;52.920;6.238;2022-12-29T11:38:26;17.25;;;3.53;;
52322;SDS011;38263;52.920;6.238;2022-12-29T11:41:01;20.55;;;4.38;;
52322;SDS011;38263;52.920;6.238;2022-12-29T11:43:31;19.02;;;4.85;;
52322;SDS011;38263;52.920;6.238;2022-12-29T11:45:58;20.55;;;3.78;;
52322;SDS011;38263;52.920;6.238;2022-12-29T11:48:25;25.83;;;3.88;;
52322;SDS011;38263;52.920;6.238;2022-12-29T11:50:56;29.60;;;4.35;;
52322;SDS011;38263;52.920;6.238;2022-12-29T11:55:59;25.88;;;5.15;;
52322;SDS011;38263;52.920;6.238;2022-12-29T11:58:29;18.23;;;4.13;;
52322;SDS011;38263;52.920;6.238;2022-12-29T12:00:57;25.85;;;4.13;;
52322;SDS011;38263;52.920;6.238;2022-12-29T12:03:24;17.70;;;3.38;;
52322;SDS011;38263;52.920;6.238;2022-12-29T12:08:31;14.68;;;4.05;;
52322;SDS011;38263;52.920;6.238;2022-12-29T12:11:10;18.83;;;3.70;;
52322;SDS011;38263;52.920;6.238;2022-12-29T12:16:14;22.52;;;3.97;;
52322;SDS011;38263;52.920;6.238;2022-12-29T12:18:53;23.70;;;5.25;;
52322;SDS011;38263;52.920;6.238;2022-12-29T12:21:39;23.48;;;4.00;;
52322;SDS011;38263;52.920;6.238;2022-12-29T12:24:26;20.27;;;4.38;;
52322;SDS011;38263;52.920;6.238;2022-12-29T12:27:20;24.13;;;4.20;;
52322;SDS011;38263;52.920;6.238;2022-12-29T12:29:58;13.05;;;2.53;;
52322;SDS011;38263;52.920;6.238;2022-12-29T12:35:33;16.90;;;3.83;;
52322;SDS011;38263;52.920;6.238;2022-12-29T12:38:17;18.85;;;2.97;;
52322;SDS011;38263;52.920;6.238;2022-12-29T12:41:07;13.85;;;3.85;;
52322;SDS011;38263;52.920;6.238;2022-12-29T12:46:06;16.83;;;3.25;;
52322;SDS011;38263;52.920;6.238;2022-12-29T12:48:53;17.20;;;3.10;;
52322;SDS011;38263;52.920;6.238;2022-12-29T12:51:33;16.50;;;3.63;;
52322;SDS011;38263;52.920;6.238;2022-12-29T12:54:03;16.83;;;2.65;;
52322;SDS011;38263;52.920;6.238;2022-12-29T12:56:41;14.85;;;2.97;;
52322;SDS011;38263;52.920;6.238;2022-12-29T12:59:38;14.18;;;3.10;;
52322;SDS011;38263;52.920;6.238;2022-12-29T13:07:50;14.05;;;2.60;;
52322;SDS011;38263;52.920;6.238;2022-12-29T13:38:17;10.32;;;2.65;;
52322;SDS011;38263;52.920;6.238;2022-12-29T13:40:45;12.40;;;2.45;;
52322;SDS011;38263;52.920;6.238;2022-12-29T13:43:13;11.15;;;3.38;;
52322;SDS011;38263;52.920;6.238;2022-12-29T13:45:40;15.43;;;3.20;;
52322;SDS011;38263;52.920;6.238;2022-12-29T13:48:07;11.20;;;3.25;;
52322;SDS011;38263;52.920;6.238;2022-12-29T13:50:40;12.40;;;3.25;;
52322;SDS011;38263;52.920;6.238;2022-12-29T13:56:07;20.05;;;3.72;;
52322;SDS011;38263;52.920;6.238;2022-12-29T14:03:53;12.07;;;2.50;;
52322;SDS011;38263;52.920;6.238;2022-12-29T14:06:27;12.18;;;2.92;;
52322;SDS011;38263;52.920;6.238;2022-12-29T14:08:54;19.63;;;2.65;;
52322;SDS011;38263;52.920;6.238;2022-12-29T14:11:22;14.80;;;3.45;;
52322;SDS011;38263;52.920;6.238;2022-12-29T14:13:52;15.02;;;2.90;;
52322;SDS011;38263;52.920;6.238;2022-12-29T14:16:25;11.45;;;2.78;;
52322;SDS011;38263;52.920;6.238;2022-12-29T14:18:52;12.38;;;3.22;;
52322;SDS011;38263;52.920;6.238;2022-12-29T14:21:20;17.23;;;3.63;;
52322;SDS011;38263;52.920;6.238;2022-12-29T14:23:48;13.63;;;2.88;;
52322;SDS011;38263;52.920;6.238;2022-12-29T14:28:45;18.65;;;3.50;;
52322;SDS011;38263;52.920;6.238;2022-12-29T14:36:35;11.38;;;2.30;;
52322;SDS011;38263;52.920;6.238;2022-12-29T14:39:02;8.38;;;1.98;;
52322;SDS011;38263;52.920;6.238;2022-12-29T14:41:35;7.43;;;1.88;;
52322;SDS011;38263;52.920;6.238;2022-12-29T14:44:10;13.18;;;3.95;;
52322;SDS011;38263;52.920;6.238;2022-12-29T14:46:44;17.75;;;2.90;;
52322;SDS011;38263;52.920;6.238;2022-12-29T14:49:18;11.10;;;2.50;;
52322;SDS011;38263;52.920;6.238;2022-12-29T14:51:44;13.63;;;2.03;;
52322;SDS011;38263;52.920;6.238;2022-12-29T14:56:59;14.77;;;2.88;;
52322;SDS011;38263;52.920;6.238;2022-12-29T14:59:26;8.38;;;2.13;;
52322;SDS011;38263;52.920;6.238;2022-12-29T15:01:53;10.13;;;2.85;;
52322;SDS011;38263;52.920;6.238;2022-12-29T15:04:21;11.43;;;3.05;;
52322;SDS011;38263;52.920;6.238;2022-12-29T15:06:48;12.20;;;4.10;;
52322;SDS011;38263;52.920;6.238;2022-12-29T15:09:17;19.38;;;3.90;;
52322;SDS011;38263;52.920;6.238;2022-12-29T15:14:38;14.90;;;3.85;;
52322;SDS011;38263;52.920;6.238;2022-12-29T15:17:23;9.65;;;2.85;;
52322;SDS011;38263;52.920;6.238;2022-12-29T15:19:49;16.98;;;2.58;;
52322;SDS011;38263;52.920;6.238;2022-12-29T15:22:15;15.85;;;3.80;;
52322;SDS011;38263;52.920;6.238;2022-12-29T15:24:42;12.20;;;3.13;;
52322;SDS011;38263;52.920;6.238;2022-12-29T15:27:15;12.02;;;2.50;;
52322;SDS011;38263;52.920;6.238;2022-12-29T15:29:45;10.40;;;2.97;;
52322;SDS011;38263;52.920;6.238;2022-12-29T15:32:21;12.25;;;2.78;;
52322;SDS011;38263;52.920;6.238;2022-12-29T15:34:49;11.90;;;2.63;;
52322;SDS011;38263;52.920;6.238;2022-12-29T15:37:22;11.25;;;2.00;;
52322;SDS011;38263;52.920;6.238;2022-12-29T15:39:49;13.65;;;2.25;;
52322;SDS011;38263;52.920;6.238;2022-12-29T15:42:18;6.88;;;2.10;;
52322;SDS011;38263;52.920;6.238;2022-12-29T15:44:46;9.88;;;2.72;;
52322;SDS011;38263;52.920;6.238;2022-12-29T15:47:12;11.48;;;2.90;;
52322;SDS011;38263;52.920;6.238;2022-12-29T15:49:51;8.82;;;2.22;;
52322;SDS011;38263;52.920;6.238;2022-12-29T15:52:21;8.80;;;1.85;;
52322;SDS011;38263;52.920;6.238;2022-12-29T15:54:48;11.63;;;2.47;;
52322;SDS011;38263;52.920;6.238;2022-12-29T15:57:58;12.95;;;2.35;;
52322;SDS011;38263;52.920;6.238;2022-12-29T16:00:20;16.77;;;2.30;;
52322;SDS011;38263;52.920;6.238;2022-12-29T16:02:47;15.63;;;3.17;;
52322;SDS011;38263;52.920;6.238;2022-12-29T16:05:17;11.30;;;3.40;;
52322;SDS011;38263;52.920;6.238;2022-12-29T16:07:53;12.75;;;2.15;;
52322;SDS011;38263;52.920;6.238;2022-12-29T16:10:39;13.55;;;3.10;;
52322;SDS011;38263;52.920;6.238;2022-12-29T16:13:19;13.73;;;3.08;;
52322;SDS011;38263;52.920;6.238;2022-12-29T16:15:46;14.05;;;2.65;;
52322;SDS011;38263;52.920;6.238;2022-12-29T16:18:21;15.23;;;2.88;;
52322;SDS011;38263;52.920;6.238;2022-12-29T16:20:49;12.77;;;2.60;;
52322;SDS011;38263;52.920;6.238;2022-12-29T16:23:20;11.70;;;2.97;;
52322;SDS011;38263;52.920;6.238;2022-12-29T16:25:47;13.90;;;3.35;;
52322;SDS011;38263;52.920;6.238;2022-12-29T16:28:18;20.38;;;2.80;;
52322;SDS011;38263;52.920;6.238;2022-12-29T16:30:45;12.43;;;2.67;;
52322;SDS011;38263;52.920;6.238;2022-12-29T16:36:30;10.07;;;2.22;;
52322;SDS011;38263;52.920;6.238;2022-12-29T16:39:12;12.68;;;2.92;;
52322;SDS011;38263;52.920;6.238;2022-12-29T16:44:12;5.65;;;1.42;;
52322;SDS011;38263;52.920;6.238;2022-12-29T16:49:32;4.53;;;1.50;;
52322;SDS011;38263;52.920;6.238;2022-12-29T16:51:59;3.72;;;1.30;;